Time;durP1;ratioP1;P1;durP2;ratioP2;P2;SDS_P1;SDS_P2;PMS_P1;PMS_P2;Temp;Humidity;BMP_temperature;BMP_pressure;BME280_temperature;BME280_humidity;BME280_pressure;Samples;Min_cycle;Max_cycle;Signal;HPM_P1;HPM_P2
2021/03/18 00:00:52;;;;;;;12.67;3.30;;;;;;;;;;5042630;28;20258;-69
2021/03/18 00:03:20;;;;;;;13.57;3.60;;;;;;;;;;5041469;28;21914;-68
2021/03/18 00:05:46;;;;;;;12.23;3.37;;;;;;;;;;5040505;28;20232;-69
2021/03/18 00:08:12;;;;;;;15.33;3.30;;;;;;;;;;5029762;28;20312;-69
2021/03/18 00:10:38;;;;;;;15.73;3.50;;;;;;;;;;5041221;28;20265;-69
2021/03/18 00:13:06;;;;;;;11.80;3.93;;;;;;;;;;5031933;28;20182;-69
2021/03/18 00:15:32;;;;;;;12.03;4.10;;;;;;;;;;5033709;28;20559;-69
2021/03/18 00:17:58;;;;;;;9.53;4.00;;;;;;;;;;5027624;28;20727;-69
2021/03/18 00:20:23;;;;;;;11.60;3.80;;;;;;;;;;5047695;28;20703;-69
2021/03/18 00:22:49;;;;;;;15.27;4.03;;;;;;;;;;5031105;28;20676;-69
2021/03/18 00:25:17;;;;;;;24.00;4.73;;;;;;;;;;5040499;28;20190;-68
2021/03/18 00:27:44;;;;;;;15.00;4.57;;;;;;;;;;5029444;28;21276;-68
2021/03/18 00:30:13;;;;;;;15.27;4.00;;;;;;;;;;5034032;28;20197;-68
2021/03/18 00:32:38;;;;;;;12.93;4.50;;;;;;;;;;5027816;28;20649;-68
2021/03/18 00:35:08;;;;;;;14.63;4.53;;;;;;;;;;5040801;28;20174;-69
2021/03/18 00:37:35;;;;;;;14.30;4.40;;;;;;;;;;5029945;28;20665;-69
2021/03/18 00:40:01;;;;;;;12.37;4.23;;;;;;;;;;5045309;28;20275;-69
2021/03/18 00:42:26;;;;;;;15.13;4.03;;;;;;;;;;5037349;28;20331;-68
2021/03/18 00:44:52;;;;;;;16.07;4.10;;;;;;;;;;5030652;28;20210;-69
2021/03/18 00:47:18;;;;;;;12.20;4.07;;;;;;;;;;5037493;28;20202;-69
2021/03/18 00:49:44;;;;;;;13.30;4.43;;;;;;;;;;5031126;28;20199;-69
2021/03/18 00:52:11;;;;;;;12.40;4.13;;;;;;;;;;5036091;28;20177;-69
2021/03/18 00:54:36;;;;;;;15.93;4.77;;;;;;;;;;5028289;28;20232;-69
2021/03/18 00:57:02;;;;;;;11.40;4.67;;;;;;;;;;5034393;28;20649;-69
2021/03/18 00:59:27;;;;;;;13.03;4.33;;;;;;;;;;5033557;28;20657;-68
2021/03/18 01:01:53;;;;;;;18.47;4.23;;;;;;;;;;5041041;28;20660;-68
2021/03/18 01:04:18;;;;;;;14.00;4.03;;;;;;;;;;5034088;28;20209;-68
2021/03/18 01:06:43;;;;;;;15.77;4.63;;;;;;;;;;5037705;28;20189;-68
2021/03/18 01:09:09;;;;;;;15.83;4.20;;;;;;;;;;5031465;28;20197;-69
2021/03/18 01:11:37;;;;;;;11.63;3.83;;;;;;;;;;5039841;28;20178;-68
2021/03/18 01:14:09;;;;;;;13.97;4.30;;;;;;;;;;5034969;28;20186;-68
2021/03/18 01:16:39;;;;;;;14.30;4.40;;;;;;;;;;5033105;28;20190;-68
2021/03/18 01:19:08;;;;;;;19.13;4.23;;;;;;;;;;5036386;28;20652;-68
2021/03/18 01:21:38;;;;;;;10.57;4.03;;;;;;;;;;5027609;28;20202;-68
2021/03/18 01:24:04;;;;;;;18.43;4.37;;;;;;;;;;5039847;28;20671;-68
2021/03/18 01:26:30;;;;;;;15.87;4.90;;;;;;;;;;5026041;28;20206;-68
2021/03/18 01:28:55;;;;;;;14.60;3.90;;;;;;;;;;5036001;28;20186;-68
2021/03/18 01:31:21;;;;;;;23.37;4.53;;;;;;;;;;5021919;28;20288;-68
2021/03/18 01:33:47;;;;;;;22.03;3.93;;;;;;;;;;5041295;28;20189;-67
2021/03/18 01:36:13;;;;;;;11.57;3.97;;;;;;;;;;5025673;28;20193;-67
2021/03/18 01:38:41;;;;;;;17.50;3.60;;;;;;;;;;5032465;28;20190;-68
2021/03/18 01:41:06;;;;;;;16.40;4.07;;;;;;;;;;5023981;28;20248;-68
2021/03/18 01:43:32;;;;;;;14.43;3.40;;;;;;;;;;5040463;28;20225;-67
2021/03/18 01:45:57;;;;;;;17.10;3.80;;;;;;;;;;5030086;28;20217;-68
2021/03/18 01:48:23;;;;;;;11.37;3.80;;;;;;;;;;5030690;28;20190;-67
2021/03/18 01:50:49;;;;;;;11.83;3.43;;;;;;;;;;5044255;28;20197;-68
2021/03/18 01:53:18;;;;;;;11.67;3.90;;;;;;;;;;5025991;28;20649;-68
2021/03/18 01:55:45;;;;;;;9.20;3.97;;;;;;;;;;5036284;28;20196;-68
2021/03/18 01:58:11;;;;;;;14.97;4.17;;;;;;;;;;5030076;28;20189;-68
2021/03/18 02:00:39;;;;;;;11.40;3.50;;;;;;;;;;5044083;28;20192;-68
2021/03/18 02:03:05;;;;;;;16.17;4.60;;;;;;;;;;5029414;28;20712;-70
2021/03/18 02:05:31;;;;;;;15.67;3.93;;;;;;;;;;5037038;28;20210;-68
2021/03/18 02:07:57;;;;;;;11.27;3.90;;;;;;;;;;5027553;28;20254;-67
2021/03/18 02:10:35;;;;;;;12.27;4.00;;;;;;;;;;5034976;28;20196;-70
2021/03/18 02:13:02;;;;;;;9.07;3.90;;;;;;;;;;5028481;28;20194;-68
2021/03/18 02:15:38;;;;;;;12.97;4.33;;;;;;;;;;5034224;28;20201;-68
2021/03/18 02:18:15;;;;;;;10.67;4.93;;;;;;;;;;5032400;28;20193;-69
2021/03/18 02:21:02;;;;;;;20.37;4.67;;;;;;;;;;5041876;28;20471;-68
2021/03/18 02:23:51;;;;;;;13.60;4.40;;;;;;;;;;5026113;28;20203;-68
2021/03/18 02:26:47;;;;;;;11.07;3.90;;;;;;;;;;5037057;28;20206;-68
2021/03/18 02:29:40;;;;;;;17.20;6.07;;;;;;;;;;5030030;28;20311;-68
2021/03/18 02:32:43;;;;;;;18.50;5.97;;;;;;;;;;5035704;28;20286;-68
2021/03/18 02:35:27;;;;;;;23.57;6.60;;;;;;;;;;5030314;28;20189;-68
2021/03/18 02:38:32;;;;;;;20.30;6.30;;;;;;;;;;5045875;28;20539;-68
2021/03/18 02:41:22;;;;;;;18.00;6.13;;;;;;;;;;5011078;28;20190;-69
2021/03/18 02:43:52;;;;;;;15.33;5.37;;;;;;;;;;5017645;28;20238;-69
2021/03/18 02:46:20;;;;;;;25.83;6.60;;;;;;;;;;5024886;28;20233;-69
2021/03/18 02:48:47;;;;;;;18.57;6.40;;;;;;;;;;5039075;28;20185;-68
2021/03/18 02:51:16;;;;;;;20.30;6.70;;;;;;;;;;5029517;28;20190;-69
2021/03/18 02:53:44;;;;;;;19.83;6.50;;;;;;;;;;5039862;28;20182;-68
2021/03/18 02:56:12;;;;;;;26.17;6.93;;;;;;;;;;5034064;28;20263;-69
2021/03/18 02:58:40;;;;;;;12.60;5.80;;;;;;;;;;5036755;28;20224;-68
2021/03/18 03:01:07;;;;;;;16.07;6.00;;;;;;;;;;5028614;28;20197;-69
2021/03/18 03:03:34;;;;;;;17.70;6.17;;;;;;;;;;5044464;28;21429;-68
2021/03/18 03:06:03;;;;;;;22.17;6.63;;;;;;;;;;5030936;28;20296;-69
2021/03/18 03:08:29;;;;;;;15.13;6.00;;;;;;;;;;5045428;28;20313;-69
2021/03/18 03:11:00;;;;;;;17.20;6.13;;;;;;;;;;5032511;28;20536;-68
2021/03/18 03:13:27;;;;;;;20.17;6.07;;;;;;;;;;5042092;28;20183;-69
2021/03/18 03:15:55;;;;;;;20.00;6.40;;;;;;;;;;5034525;28;20579;-69
2021/03/18 03:18:21;;;;;;;20.47;6.50;;;;;;;;;;5041979;28;20193;-68
2021/03/18 03:20:46;;;;;;;23.97;6.97;;;;;;;;;;5033823;28;20194;-68
2021/03/18 03:23:12;;;;;;;16.90;6.67;;;;;;;;;;5036488;28;20232;-68
2021/03/18 03:25:38;;;;;;;18.73;7.20;;;;;;;;;;5043314;28;20308;-68
2021/03/18 03:28:08;;;;;;;25.47;7.27;;;;;;;;;;5026437;28;20189;-69
2021/03/18 03:30:33;;;;;;;32.40;8.97;;;;;;;;;;5044604;28;20193;-68
2021/03/18 03:32:59;;;;;;;19.03;7.63;;;;;;;;;;5026182;28;20190;-68
2021/03/18 03:35:24;;;;;;;20.57;8.03;;;;;;;;;;5041881;28;20186;-69
2021/03/18 03:37:50;;;;;;;32.70;8.90;;;;;;;;;;5031983;28;20648;-69
2021/03/18 03:40:17;;;;;;;25.50;8.73;;;;;;;;;;5038158;28;20262;-69
2021/03/18 03:42:44;;;;;;;27.70;9.50;;;;;;;;;;5029870;28;20221;-68
2021/03/18 03:45:11;;;;;;;25.00;8.20;;;;;;;;;;5038276;28;20293;-69
2021/03/18 03:47:40;;;;;;;19.93;7.23;;;;;;;;;;5027545;28;20197;-69
2021/03/18 03:50:09;;;;;;;20.37;7.50;;;;;;;;;;5038879;28;20208;-68
2021/03/18 03:53:04;;;;;;;24.80;6.57;;;;;;;;;;5026700;28;20230;-68
2021/03/18 03:55:58;;;;;;;16.60;6.50;;;;;;;;;;5037853;28;20243;-68
2021/03/18 03:58:47;;;;;;;29.37;6.30;;;;;;;;;;5028186;28;20193;-69
2021/03/18 04:01:20;;;;;;;18.30;6.13;;;;;;;;;;5038108;28;20181;-68
2021/03/18 04:03:46;;;;;;;23.13;6.27;;;;;;;;;;5031732;28;20200;-69
2021/03/18 04:06:14;;;;;;;14.27;5.63;;;;;;;;;;5036937;28;20706;-69
2021/03/18 04:08:42;;;;;;;13.67;6.57;;;;;;;;;;5035723;28;20708;-68
2021/03/18 04:11:09;;;;;;;28.10;6.57;;;;;;;;;;5038567;28;20189;-68
2021/03/18 04:13:35;;;;;;;16.40;6.27;;;;;;;;;;5036478;28;20272;-68
2021/03/18 04:16:02;;;;;;;17.77;6.20;;;;;;;;;;5042461;28;20272;-68
2021/03/18 04:18:31;;;;;;;17.80;5.40;;;;;;;;;;5032753;28;20535;-68
2021/03/18 04:20:58;;;;;;;14.70;5.43;;;;;;;;;;5031821;28;20193;-68
2021/03/18 04:23:26;;;;;;;25.60;6.47;;;;;;;;;;5038291;28;20563;-68
2021/03/18 04:25:52;;;;;;;21.13;6.00;;;;;;;;;;5029926;28;20233;-68
2021/03/18 04:28:19;;;;;;;18.30;6.13;;;;;;;;;;5038164;28;20209;-68
2021/03/18 04:30:44;;;;;;;21.90;6.63;;;;;;;;;;5027431;28;20627;-68
2021/03/18 04:33:10;;;;;;;14.90;5.83;;;;;;;;;;5035854;28;20185;-69
2021/03/18 04:35:36;;;;;;;16.33;5.53;;;;;;;;;;5030859;28;20196;-68
2021/03/18 04:38:03;;;;;;;21.57;5.77;;;;;;;;;;5037742;28;20170;-68
2021/03/18 04:40:29;;;;;;;17.33;6.17;;;;;;;;;;5034352;28;20228;-69
2021/03/18 04:42:56;;;;;;;23.37;6.00;;;;;;;;;;5038030;28;20241;-68
2021/03/18 04:45:23;;;;;;;17.97;5.70;;;;;;;;;;5031576;28;20216;-68
2021/03/18 04:47:50;;;;;;;19.00;6.37;;;;;;;;;;5039618;28;20249;-68
2021/03/18 04:50:22;;;;;;;13.40;5.70;;;;;;;;;;5033893;28;20186;-69
2021/03/18 04:52:48;;;;;;;20.83;6.33;;;;;;;;;;5037662;28;20188;-68
2021/03/18 04:55:16;;;;;;;19.13;6.13;;;;;;;;;;5035858;28;20190;-69
2021/03/18 04:57:45;;;;;;;15.43;6.40;;;;;;;;;;5031045;28;20698;-68
2021/03/18 05:00:11;;;;;;;13.87;6.00;;;;;;;;;;5038330;28;20269;-68
2021/03/18 05:02:40;;;;;;;12.43;5.57;;;;;;;;;;5028761;28;20235;-69
2021/03/18 05:05:08;;;;;;;17.80;6.50;;;;;;;;;;5038283;28;20752;-69
2021/03/18 05:07:35;;;;;;;14.77;5.83;;;;;;;;;;5029101;28;20560;-69
2021/03/18 05:10:01;;;;;;;14.47;6.00;;;;;;;;;;5039278;28;20638;-69
2021/03/18 05:12:26;;;;;;;17.13;6.07;;;;;;;;;;5030688;28;20189;-68
2021/03/18 05:14:52;;;;;;;20.77;6.33;;;;;;;;;;5041675;28;20182;-68
2021/03/18 05:17:18;;;;;;;22.87;6.43;;;;;;;;;;5026187;28;20699;-68
2021/03/18 05:19:44;;;;;;;16.67;5.57;;;;;;;;;;5037005;28;20196;-68
2021/03/18 05:22:10;;;;;;;22.47;6.07;;;;;;;;;;5028140;28;20258;-68
2021/03/18 05:24:38;;;;;;;16.80;6.67;;;;;;;;;;5043202;28;20225;-67
2021/03/18 05:27:04;;;;;;;16.60;6.50;;;;;;;;;;5026264;28;20205;-68
2021/03/18 05:29:29;;;;;;;13.53;6.63;;;;;;;;;;5034782;28;20272;-68
2021/03/18 05:31:55;;;;;;;17.87;6.50;;;;;;;;;;5035950;28;20759;-68
2021/03/18 05:34:20;;;;;;;28.60;7.07;;;;;;;;;;5029612;28;20669;-68
2021/03/18 05:36:45;;;;;;;17.43;6.60;;;;;;;;;;5034829;28;20637;-68
2021/03/18 05:39:11;;;;;;;11.83;6.00;;;;;;;;;;5026034;28;20196;-68
2021/03/18 05:41:36;;;;;;;15.47;6.10;;;;;;;;;;5034558;28;20185;-68
2021/03/18 05:44:06;;;;;;;24.20;7.50;;;;;;;;;;5030953;28;20720;-68
2021/03/18 05:46:32;;;;;;;19.30;6.10;;;;;;;;;;5032191;28;20213;-68
2021/03/18 05:48:59;;;;;;;20.83;7.30;;;;;;;;;;5020615;28;20189;-68
2021/03/18 05:51:24;;;;;;;12.40;6.50;;;;;;;;;;5032885;28;20304;-68
2021/03/18 05:53:50;;;;;;;20.10;8.17;;;;;;;;;;5026297;28;20207;-68
2021/03/18 05:56:17;;;;;;;29.47;8.53;;;;;;;;;;5039117;28;20189;-69
2021/03/18 05:58:45;;;;;;;15.90;7.30;;;;;;;;;;5024344;28;20551;-69
2021/03/18 06:01:11;;;;;;;20.43;7.93;;;;;;;;;;5027747;28;20193;-69
2021/03/18 06:03:37;;;;;;;26.10;8.53;;;;;;;;;;5034093;28;20210;-69
2021/03/18 06:06:04;;;;;;;20.90;8.23;;;;;;;;;;5023321;28;20208;-69
2021/03/18 06:08:31;;;;;;;24.40;9.00;;;;;;;;;;5034698;28;20189;-69
2021/03/18 06:10:57;;;;;;;19.37;8.27;;;;;;;;;;5015885;28;20201;-69
2021/03/18 06:13:22;;;;;;;21.47;7.87;;;;;;;;;;5030502;28;20189;-69
2021/03/18 06:15:47;;;;;;;23.57;8.40;;;;;;;;;;5023233;28;20490;-69
2021/03/18 06:18:14;;;;;;;24.13;9.23;;;;;;;;;;5036068;28;20289;-69
2021/03/18 06:20:39;;;;;;;22.93;8.07;;;;;;;;;;5030413;28;20538;-69
2021/03/18 06:23:09;;;;;;;20.70;8.47;;;;;;;;;;5033028;28;20192;-69
2021/03/18 06:25:37;;;;;;;21.20;7.97;;;;;;;;;;5025397;28;20699;-69
2021/03/18 06:28:31;;;;;;;19.80;8.80;;;;;;;;;;5036869;28;20203;-69
2021/03/18 06:31:09;;;;;;;15.33;7.47;;;;;;;;;;5025328;28;20193;-70
2021/03/18 06:33:49;;;;;;;23.50;8.33;;;;;;;;;;5032911;28;20220;-69
2021/03/18 06:36:24;;;;;;;14.97;7.83;;;;;;;;;;5027289;28;20201;-69
2021/03/18 06:39:16;;;;;;;19.93;7.77;;;;;;;;;;5030398;28;20671;-69
2021/03/18 06:41:44;;;;;;;19.00;7.27;;;;;;;;;;5027166;28;20204;-69
2021/03/18 06:44:21;;;;;;;22.37;7.67;;;;;;;;;;5032065;28;20234;-69
2021/03/18 06:46:47;;;;;;;21.93;7.80;;;;;;;;;;5029584;28;20202;-69
2021/03/18 06:49:17;;;;;;;15.07;6.73;;;;;;;;;;5041371;28;20197;-69
2021/03/18 06:51:43;;;;;;;16.43;6.73;;;;;;;;;;5025360;28;20275;-69
2021/03/18 06:54:20;;;;;;;19.63;6.73;;;;;;;;;;5040265;28;20189;-69
2021/03/18 06:56:54;;;;;;;15.97;6.97;;;;;;;;;;5026677;28;20625;-69
2021/03/18 06:59:25;;;;;;;16.25;7.07;;;;;;;;;;4372413;28;10001870;-70
2021/03/18 07:02:20;;;;;;;21.00;6.87;;;;;;;;;;5029512;28;20459;-69
2021/03/18 07:04:48;;;;;;;11.43;5.73;;;;;;;;;;5032220;28;20794;-69
2021/03/18 07:07:14;;;;;;;14.87;7.00;;;;;;;;;;5026938;28;20189;-69
2021/03/18 07:09:41;;;;;;;18.33;8.03;;;;;;;;;;5037287;28;20193;-69
2021/03/18 07:12:12;;;;;;;17.90;6.83;;;;;;;;;;5029995;28;20193;-69
2021/03/18 07:14:40;;;;;;;15.17;6.87;;;;;;;;;;5031245;28;20197;-69
2021/03/18 07:17:07;;;;;;;14.80;5.83;;;;;;;;;;5027472;28;20646;-69
2021/03/18 07:19:33;;;;;;;20.00;6.37;;;;;;;;;;5028426;28;20196;-69
2021/03/18 07:22:00;;;;;;;16.00;5.60;;;;;;;;;;5038743;28;20259;-69
2021/03/18 07:24:29;;;;;;;19.10;5.00;;;;;;;;;;5027915;28;20189;-69
2021/03/18 07:26:57;;;;;;;12.23;5.00;;;;;;;;;;5037112;28;20189;-69
2021/03/18 07:29:32;;;;;;;16.00;5.43;;;;;;;;;;5026783;28;20611;-70
2021/03/18 07:31:58;;;;;;;14.87;5.70;;;;;;;;;;5033783;28;20267;-70
2021/03/18 07:34:25;;;;;;;15.33;5.53;;;;;;;;;;5026454;28;20186;-70
2021/03/18 07:36:54;;;;;;;13.83;4.67;;;;;;;;;;5031577;28;20604;-69
2021/03/18 07:39:19;;;;;;;16.33;5.13;;;;;;;;;;5033717;28;20258;-69
2021/03/18 07:41:47;;;;;;;15.50;5.50;;;;;;;;;;5040607;28;20205;-69
2021/03/18 07:44:15;;;;;;;19.13;6.77;;;;;;;;;;5034888;28;20226;-69
2021/03/18 07:46:42;;;;;;;14.43;5.13;;;;;;;;;;5040710;28;20222;-69
2021/03/18 07:49:26;;;;;;;16.43;5.73;;;;;;;;;;5046082;28;20228;-69
2021/03/18 07:51:54;;;;;;;10.13;4.90;;;;;;;;;;5033747;28;20200;-69
2021/03/18 07:54:21;;;;;;;19.10;5.23;;;;;;;;;;5033804;28;20189;-69
2021/03/18 07:56:53;;;;;;;19.83;5.67;;;;;;;;;;5027944;28;20255;-69
2021/03/18 07:59:19;;;;;;;15.23;4.73;;;;;;;;;;5030804;28;20257;-69
2021/03/18 08:01:46;;;;;;;16.37;5.00;;;;;;;;;;5030691;28;20227;-69
2021/03/18 08:04:13;;;;;;;16.60;5.43;;;;;;;;;;5045497;28;20339;-70
2021/03/18 08:06:41;;;;;;;12.90;5.03;;;;;;;;;;5028113;28;20206;-69
2021/03/18 08:09:14;;;;;;;16.97;5.30;;;;;;;;;;5034794;28;20182;-69
2021/03/18 08:11:41;;;;;;;18.87;5.67;;;;;;;;;;5026523;28;20181;-69
2021/03/18 08:14:08;;;;;;;17.50;4.73;;;;;;;;;;5040501;28;20706;-69
2021/03/18 08:16:34;;;;;;;16.93;4.63;;;;;;;;;;5031099;28;20178;-69
2021/03/18 08:19:04;;;;;;;13.57;5.13;;;;;;;;;;5043328;28;20532;-69
2021/03/18 08:21:49;;;;;;;16.07;4.93;;;;;;;;;;5031732;28;20729;-69
2021/03/18 08:24:17;;;;;;;15.90;4.70;;;;;;;;;;5039305;28;20217;-69
2021/03/18 08:26:56;;;;;;;21.80;5.80;;;;;;;;;;5029914;28;20630;-69
2021/03/18 08:29:25;;;;;;;14.77;4.80;;;;;;;;;;5040756;28;20189;-69
2021/03/18 08:31:52;;;;;;;19.30;4.57;;;;;;;;;;5032296;28;20194;-69
2021/03/18 08:34:20;;;;;;;15.77;4.73;;;;;;;;;;5034602;28;20217;-69
2021/03/18 08:36:51;;;;;;;12.13;3.97;;;;;;;;;;5029357;28;20273;-69
2021/03/18 08:39:38;;;;;;;12.77;4.70;;;;;;;;;;5038092;28;20386;-69
2021/03/18 08:42:05;;;;;;;12.20;3.77;;;;;;;;;;5028739;28;20190;-69
2021/03/18 08:44:42;;;;;;;19.17;4.70;;;;;;;;;;5039601;28;20193;-69
2021/03/18 08:47:12;;;;;;;15.50;4.47;;;;;;;;;;5029125;28;20609;-69
2021/03/18 08:49:38;;;;;;;13.77;4.63;;;;;;;;;;5041415;28;20268;-69
2021/03/18 08:52:08;;;;;;;12.53;3.80;;;;;;;;;;5038605;28;20185;-69
2021/03/18 08:54:36;;;;;;;19.17;4.63;;;;;;;;;;5037139;28;20193;-69
2021/03/18 08:57:03;;;;;;;13.63;4.30;;;;;;;;;;5037223;28;20297;-69
2021/03/18 08:59:28;;;;;;;15.00;4.17;;;;;;;;;;5028418;28;20198;-69
2021/03/18 09:02:11;;;;;;;12.53;3.90;;;;;;;;;;5037671;28;20244;-69
2021/03/18 09:04:38;;;;;;;14.10;4.83;;;;;;;;;;5028990;28;20572;-69
2021/03/18 09:07:04;;;;;;;17.63;5.00;;;;;;;;;;5040630;28;20197;-69
2021/03/18 09:09:30;;;;;;;21.07;4.90;;;;;;;;;;5030563;28;20267;-69
2021/03/18 09:11:55;;;;;;;12.93;4.07;;;;;;;;;;5039515;28;20653;-69
2021/03/18 09:14:21;;;;;;;12.73;5.17;;;;;;;;;;5026088;28;20678;-69
2021/03/18 09:16:47;;;;;;;14.63;4.50;;;;;;;;;;5036223;28;20196;-69
2021/03/18 09:19:12;;;;;;;12.17;4.03;;;;;;;;;;5031950;28;20209;-69
2021/03/18 09:21:40;;;;;;;15.90;4.40;;;;;;;;;;5034639;28;20217;-69
2021/03/18 09:24:07;;;;;;;23.70;10.53;;;;;;;;;;5022588;28;20553;-69
2021/03/18 09:26:32;;;;;;;11.53;4.30;;;;;;;;;;5036811;28;20237;-69
2021/03/18 09:28:58;;;;;;;16.20;4.97;;;;;;;;;;5037804;28;20220;-69
2021/03/18 09:31:24;;;;;;;13.30;4.43;;;;;;;;;;5031618;28;20844;-69
2021/03/18 09:33:52;;;;;;;15.90;5.00;;;;;;;;;;5035447;28;20268;-69
2021/03/18 09:36:21;;;;;;;17.13;4.70;;;;;;;;;;5029698;28;20584;-69
2021/03/18 09:39:03;;;;;;;13.37;4.17;;;;;;;;;;5045512;28;20181;-69
2021/03/18 09:41:34;;;;;;;15.67;4.80;;;;;;;;;;5029680;28;20224;-69
2021/03/18 09:44:02;;;;;;;15.93;4.50;;;;;;;;;;5029002;28;20704;-69
2021/03/18 09:46:28;;;;;;;12.63;4.17;;;;;;;;;;5026827;28;20221;-69
2021/03/18 09:48:54;;;;;;;18.03;4.30;;;;;;;;;;5039816;28;20188;-69
2021/03/18 09:51:21;;;;;;;10.17;4.43;;;;;;;;;;5024342;28;21276;-69
2021/03/18 09:53:59;;;;;;;14.57;5.00;;;;;;;;;;5038953;28;20214;-69
2021/03/18 09:56:25;;;;;;;11.10;4.97;;;;;;;;;;5027498;28;20220;-69
2021/03/18 09:58:52;;;;;;;13.77;4.60;;;;;;;;;;5040472;28;20236;-69
2021/03/18 10:01:22;;;;;;;20.67;4.97;;;;;;;;;;5024103;28;20214;-69
2021/03/18 10:03:59;;;;;;;18.40;5.77;;;;;;;;;;5040036;28;20252;-70
2021/03/18 10:06:33;;;;;;;15.37;4.83;;;;;;;;;;5029764;28;20236;-69
2021/03/18 10:09:25;;;;;;;13.97;4.53;;;;;;;;;;5036068;28;20182;-69
2021/03/18 10:11:53;;;;;;;16.93;4.90;;;;;;;;;;5029908;28;20193;-69
2021/03/18 10:14:20;;;;;;;16.37;5.50;;;;;;;;;;5038290;28;20652;-69
2021/03/18 10:16:47;;;;;;;10.77;4.70;;;;;;;;;;5032363;28;20196;-69
2021/03/18 10:19:13;;;;;;;14.17;4.37;;;;;;;;;;5036752;28;20295;-69
2021/03/18 10:21:39;;;;;;;10.03;3.90;;;;;;;;;;5038777;28;20592;-69
2021/03/18 10:24:10;;;;;;;17.27;3.53;;;;;;;;;;5032525;28;20734;-69
2021/03/18 10:26:35;;;;;;;15.27;4.40;;;;;;;;;;5036789;28;20236;-69
2021/03/18 10:29:03;;;;;;;11.73;3.67;;;;;;;;;;5025545;28;20237;-69
2021/03/18 10:31:28;;;;;;;9.47;3.57;;;;;;;;;;5040634;28;20184;-69
2021/03/18 10:33:54;;;;;;;7.13;3.20;;;;;;;;;;5028893;28;20181;-69
2021/03/18 10:36:32;;;;;;;11.23;3.30;;;;;;;;;;5036658;28;20537;-69
2021/03/18 10:39:00;;;;;;;11.40;2.83;;;;;;;;;;5027677;28;20185;-69
2021/03/18 10:41:26;;;;;;;7.17;3.07;;;;;;;;;;5034765;28;20173;-69
2021/03/18 10:43:51;;;;;;;9.60;2.63;;;;;;;;;;5024438;28;20903;-69
2021/03/18 10:46:24;;;;;;;8.80;2.40;;;;;;;;;;5040384;28;20213;-68
2021/03/18 10:48:50;;;;;;;8.00;2.73;;;;;;;;;;5033130;28;20190;-72
2021/03/18 10:51:18;;;;;;;9.90;2.43;;;;;;;;;;5037088;28;20495;-69
2021/03/18 10:53:45;;;;;;;10.27;3.40;;;;;;;;;;5034704;28;20182;-69
2021/03/18 10:56:23;;;;;;;10.60;2.97;;;;;;;;;;5038382;28;20173;-69
2021/03/18 10:58:48;;;;;;;8.03;2.90;;;;;;;;;;5034975;28;20181;-71
2021/03/18 11:01:23;;;;;;;11.10;2.53;;;;;;;;;;5038476;28;20676;-70
2021/03/18 11:03:49;;;;;;;7.67;2.73;;;;;;;;;;5045832;28;20204;-70
2021/03/18 11:06:19;;;;;;;9.97;2.70;;;;;;;;;;5031145;28;20209;-69
2021/03/18 11:08:53;;;;;;;10.20;2.73;;;;;;;;;;5045898;28;20197;-70
2021/03/18 11:11:24;;;;;;;10.83;3.63;;;;;;;;;;5027824;28;20463;-69
2021/03/18 11:13:51;;;;;;;10.57;3.73;;;;;;;;;;5037467;28;20744;-70
2021/03/18 11:16:21;;;;;;;15.67;4.17;;;;;;;;;;5030270;28;20185;-70
2021/03/18 11:18:47;;;;;;;12.03;3.67;;;;;;;;;;5042602;28;20190;-69
2021/03/18 11:21:22;;;;;;;13.67;3.87;;;;;;;;;;5030761;28;20196;-69
2021/03/18 11:23:49;;;;;;;12.50;4.10;;;;;;;;;;5039703;28;20197;-69
2021/03/18 11:26:18;;;;;;;17.63;4.50;;;;;;;;;;5031316;28;20319;-69
2021/03/18 11:28:49;;;;;;;15.37;4.27;;;;;;;;;;5025644;28;20189;-69
2021/03/18 11:31:17;;;;;;;14.93;3.97;;;;;;;;;;5032449;28;20193;-69
2021/03/18 11:33:42;;;;;;;13.93;4.33;;;;;;;;;;5044143;28;20185;-69
2021/03/18 11:36:08;;;;;;;11.77;3.67;;;;;;;;;;5030053;28;20641;-70
2021/03/18 11:38:34;;;;;;;10.63;3.50;;;;;;;;;;5046153;28;20178;-70
2021/03/18 11:40:59;;;;;;;12.27;3.53;;;;;;;;;;5035183;28;20669;-70
2021/03/18 11:43:25;;;;;;;14.33;3.67;;;;;;;;;;5039975;28;20276;-70
2021/03/18 11:45:51;;;;;;;15.37;4.27;;;;;;;;;;5040329;28;20529;-70
2021/03/18 11:48:17;;;;;;;12.45;4.30;;;;;;;;;;5037616;28;20200;-70
2021/03/18 11:50:43;;;;;;;9.13;2.85;;;;;;;;;;5039019;28;20280;-70
2021/03/18 11:53:08;;;;;;;9.00;2.70;;;;;;;;;;5032609;28;20186;-70
2021/03/18 11:55:35;;;;;;;10.18;3.00;;;;;;;;;;5039395;28;20549;-69
2021/03/18 11:58:02;;;;;;;12.53;3.20;;;;;;;;;;5035956;28;20181;-68
2021/03/18 12:00:33;;;;;;;10.23;3.60;;;;;;;;;;5041589;28;20188;-68
2021/03/18 12:03:00;;;;;;;8.10;2.95;;;;;;;;;;5035072;28;20190;-68
2021/03/18 12:05:26;;;;;;;8.20;3.77;;;;;;;;;;5036223;28;20206;-68
2021/03/18 12:07:52;;;;;;;8.80;3.10;;;;;;;;;;5029591;28;20563;-68
2021/03/18 12:10:18;;;;;;;12.70;3.50;;;;;;;;;;5043707;28;20214;-68
2021/03/18 12:12:44;;;;;;;12.75;3.35;;;;;;;;;;5027286;28;20185;-69
2021/03/18 12:15:11;;;;;;;15.57;3.00;;;;;;;;;;5040619;28;20189;-69
2021/03/18 12:17:41;;;;;;;15.30;3.27;;;;;;;;;;5042506;28;20184;-69
2021/03/18 12:20:09;;;;;;;17.33;3.35;;;;;;;;;;5036939;28;20201;-69
2021/03/18 12:22:35;;;;;;;16.05;3.22;;;;;;;;;;5036383;28;20521;-69
2021/03/18 12:25:02;;;;;;;16.35;2.88;;;;;;;;;;5032601;28;20297;-69
2021/03/18 12:27:28;;;;;;;14.57;3.22;;;;;;;;;;5031233;28;20264;-69
2021/03/18 12:29:53;;;;;;;18.30;3.05;;;;;;;;;;5031452;28;20680;-69
2021/03/18 12:32:19;;;;;;;16.10;2.70;;;;;;;;;;5047303;28;21054;-68
2021/03/18 12:34:45;;;;;;;13.45;3.22;;;;;;;;;;5031470;28;20183;-69
2021/03/18 12:37:10;;;;;;;17.70;3.42;;;;;;;;;;5039551;28;20631;-68
2021/03/18 12:39:35;;;;;;;19.17;3.60;;;;;;;;;;5029031;28;20211;-69
2021/03/18 12:42:01;;;;;;;15.68;2.97;;;;;;;;;;5040146;28;20174;-69
2021/03/18 12:44:26;;;;;;;16.80;3.03;;;;;;;;;;5032862;28;20232;-69
2021/03/18 12:46:52;;;;;;;14.80;2.53;;;;;;;;;;5036567;28;20320;-69
2021/03/18 12:49:17;;;;;;;13.13;2.58;;;;;;;;;;5029637;28;20188;-69
2021/03/18 12:51:42;;;;;;;19.23;2.83;;;;;;;;;;5043644;28;20196;-72
2021/03/18 12:54:08;;;;;;;15.00;3.13;;;;;;;;;;5035327;28;20526;-69
2021/03/18 12:56:34;;;;;;;16.05;3.35;;;;;;;;;;5028150;28;20237;-69
2021/03/18 12:59:00;;;;;;;12.27;2.63;;;;;;;;;;5037011;28;20193;-71
2021/03/18 13:01:25;;;;;;;15.38;2.78;;;;;;;;;;5032410;28;20182;-70
2021/03/18 13:03:51;;;;;;;16.52;3.50;;;;;;;;;;5042054;28;20205;-69
2021/03/18 13:06:17;;;;;;;16.02;2.92;;;;;;;;;;5028488;28;20206;-69
2021/03/18 13:08:42;;;;;;;15.27;3.20;;;;;;;;;;5042853;28;20558;-69
2021/03/18 13:11:08;;;;;;;12.13;3.00;;;;;;;;;;5029767;28;20185;-71
2021/03/18 13:13:34;;;;;;;12.93;2.87;;;;;;;;;;5040329;28;21318;-71
2021/03/18 13:16:00;;;;;;;12.10;3.07;;;;;;;;;;5030428;28;20264;-70
2021/03/18 13:18:25;;;;;;;14.40;3.27;;;;;;;;;;5043509;28;20215;-73
2021/03/18 13:20:52;;;;;;;15.37;4.10;;;;;;;;;;5026242;28;20271;-72
2021/03/18 13:23:17;;;;;;;11.47;4.17;;;;;;;;;;5043164;28;20196;-70
2021/03/18 13:25:43;;;;;;;17.93;4.20;;;;;;;;;;5031244;28;20198;-71
2021/03/18 13:28:08;;;;;;;17.07;3.43;;;;;;;;;;5028407;28;20185;-70
2021/03/18 13:30:34;;;;;;;13.80;2.60;;;;;;;;;;5036849;28;20226;-69
2021/03/18 13:32:59;;;;;;;9.30;2.25;;;;;;;;;;5028021;28;20258;-69
2021/03/18 13:35:25;;;;;;;12.20;2.00;;;;;;;;;;5037489;28;20252;-69
2021/03/18 13:37:51;;;;;;;8.20;2.40;;;;;;;;;;5024740;28;20197;-68
2021/03/18 13:40:18;;;;;;;12.17;2.67;;;;;;;;;;5035166;28;20189;-68
2021/03/18 13:42:44;;;;;;;10.15;2.40;;;;;;;;;;4678979;28;9999766;-68
2021/03/18 13:45:12;;;;;;;13.40;3.22;;;;;;;;;;5037631;28;21322;-68
2021/03/18 13:47:37;;;;;;;13.35;3.05;;;;;;;;;;5031559;28;20268;-68
2021/03/18 13:50:04;;;;;;;9.32;2.50;;;;;;;;;;5034241;28;20204;-68
2021/03/18 13:52:30;;;;;;;13.25;3.10;;;;;;;;;;5026350;28;20193;-68
2021/03/18 13:54:55;;;;;;;12.60;2.47;;;;;;;;;;5032032;28;20534;-68
2021/03/18 13:57:21;;;;;;;10.60;2.40;;;;;;;;;;5034627;28;20661;-68
2021/03/18 13:59:46;;;;;;;13.13;2.42;;;;;;;;;;5025521;28;20198;-68
2021/03/18 14:02:16;;;;;;;11.60;2.70;;;;;;;;;;5036284;28;20211;-68
2021/03/18 14:04:41;;;;;;;14.10;2.97;;;;;;;;;;5028043;28;20224;-68
2021/03/18 14:07:06;;;;;;;14.10;2.55;;;;;;;;;;5034755;28;20193;-68
2021/03/18 14:09:32;;;;;;;15.10;2.70;;;;;;;;;;5023907;28;20204;-69
2021/03/18 14:11:57;;;;;;;18.25;3.75;;;;;;;;;;5035590;28;20193;-69
2021/03/18 14:14:22;;;;;;;14.20;3.25;;;;;;;;;;5026742;28;20250;-68
2021/03/18 14:16:48;;;;;;;10.70;2.63;;;;;;;;;;5029547;28;20182;-69
2021/03/18 14:19:13;;;;;;;14.47;3.63;;;;;;;;;;5018865;28;20658;-69
2021/03/18 14:21:39;;;;;;;16.63;2.90;;;;;;;;;;5037008;28;20281;-69
2021/03/18 14:24:04;;;;;;;16.83;3.80;;;;;;;;;;5025554;28;21314;-69
2021/03/18 14:26:30;;;;;;;18.97;3.33;;;;;;;;;;5030534;28;20205;-69
2021/03/18 14:28:55;;;;;;;13.03;2.80;;;;;;;;;;5033347;28;20599;-70
2021/03/18 14:31:21;;;;;;;11.43;2.70;;;;;;;;;;5028096;28;20715;-70
2021/03/18 14:33:46;;;;;;;13.07;3.00;;;;;;;;;;5036799;28;20200;-70
2021/03/18 14:36:11;;;;;;;11.67;2.73;;;;;;;;;;5032024;28;20185;-70
2021/03/18 14:38:37;;;;;;;17.10;3.60;;;;;;;;;;5037337;28;20193;-69